Time;durP1;ratioP1;P1;durP2;ratioP2;P2;SDS_P1;SDS_P2;PMS_P1;PMS_P2;Temp;Humidity;BMP_temperature;BMP_pressure;BME280_temperature;BME280_humidity;BME280_pressure;Samples;Min_cycle;Max_cycle;Signal;HPM_P1;HPM_P2
2023/04/08 00:01:30;;;;;;;0.50;0.40;;;;;;;7.55;61.09;95472.88;5134702;27;20427;-56
2023/04/08 00:03:58;;;;;;;0.30;0.20;;;;;;;7.56;61.53;95474.44;5133704;27;20490;-56
2023/04/08 00:06:27;;;;;;;0.40;0.30;;;;;;;7.55;61.08;95470.22;5134273;27;20469;-55
2023/04/08 00:08:55;;;;;;;0.70;0.50;;;;;;;7.10;63.00;95472.31;5133724;27;20470;-56
2023/04/08 00:11:23;;;;;;;1.13;1.03;;;;;;;7.13;63.78;95477.09;5134394;27;20514;-55
2023/04/08 00:13:52;;;;;;;1.23;1.23;;;;;;;6.97;64.35;95477.91;5133318;27;20474;-56
2023/04/08 00:16:21;;;;;;;0.40;0.40;;;;;;;6.67;65.36;95465.09;5133272;27;20467;-56
2023/04/08 00:18:51;;;;;;;0.47;0.33;;;;;;;6.84;65.99;95475.63;5133484;27;20448;-56
2023/04/08 00:21:20;;;;;;;0.87;0.30;;;;;;;6.74;64.35;95415.69;5133727;27;20968;-55
2023/04/08 00:23:48;;;;;;;0.50;0.50;;;;;;;7.04;65.12;95468.00;5133796;27;20918;-55
2023/04/08 00:26:16;;;;;;;0.70;0.70;;;;;;;7.12;64.87;95467.56;5133866;27;20455;-56
2023/04/08 00:28:45;;;;;;;0.30;0.20;;;;;;;7.12;64.68;95466.78;5134122;27;20843;-57
2023/04/08 00:31:14;;;;;;;0.60;0.33;;;;;;;7.12;64.72;95464.94;5133345;27;20443;-56
2023/04/08 00:33:42;;;;;;;1.00;0.50;;;;;;;7.14;64.62;95459.41;5133311;27;20888;-57
2023/04/08 00:36:12;;;;;;;0.40;0.40;;;;;;;7.15;64.58;95466.28;5133609;27;20994;-56
2023/04/08 00:38:40;;;;;;;0.50;0.30;;;;;;;7.14;64.25;95459.41;5133485;27;20480;-56
2023/04/08 00:41:09;;;;;;;0.40;0.30;;;;;;;6.28;65.75;95389.72;5133392;27;20434;-56
2023/04/08 00:43:37;;;;;;;0.40;0.33;;;;;;;6.67;65.66;95462.47;5133686;27;20441;-56
2023/04/08 00:46:05;;;;;;;0.57;0.40;;;;;;;6.66;65.87;95470.59;5133199;27;20694;-59
2023/04/08 00:48:34;;;;;;;0.30;0.30;;;;;;;6.77;64.62;95480.25;5133479;27;20440;-56
2023/04/08 00:51:03;;;;;;;0.30;0.20;;;;;;;6.68;64.72;95450.09;5133126;27;20475;-56
2023/04/08 00:53:33;;;;;;;0.60;0.40;;;;;;;6.92;64.71;95468.09;5133142;27;20564;-56
2023/04/08 00:56:01;;;;;;;0.30;0.20;;;;;;;7.26;63.79;95486.50;5133079;27;20432;-56
2023/04/08 00:58:30;;;;;;;0.53;0.53;;;;;;;7.29;63.33;95484.13;5133572;27;20432;-57
2023/04/08 01:01:03;;;;;;;0.87;0.60;;;;;;;7.12;63.90;95486.03;5132778;27;20464;-57
2023/04/08 01:03:50;;;;;;;0.97;0.97;;;;;;;7.12;64.91;95482.59;5132321;27;20479;-56
2023/04/08 01:06:25;;;;;;;0.60;0.60;;;;;;;7.22;64.31;95490.63;5132777;27;20952;-56
2023/04/08 01:08:58;;;;;;;1.23;0.50;;;;;;;6.73;66.63;95445.69;5132610;27;20427;-56
2023/04/08 01:11:29;;;;;;;1.50;1.40;;;;;;;6.59;69.22;95498.94;5132493;27;20529;-56
2023/04/08 01:13:59;;;;;;;0.70;0.40;;;;;;;6.07;74.41;95504.38;5132236;27;20989;-56
2023/04/08 01:16:28;;;;;;;2.33;1.30;;;;;;;5.77;80.16;95512.47;5132294;27;20528;-56
2023/04/08 01:18:57;;;;;;;0.60;0.50;;;;;;;5.71;83.51;95515.25;5132717;27;20505;-56
2023/04/08 01:21:27;;;;;;;0.90;0.90;;;;;;;5.31;84.50;95446.94;5132297;27;20448;-56
2023/04/08 01:24:06;;;;;;;0.47;0.47;;;;;;;5.90;84.53;95506.16;5132042;27;20550;-56
2023/04/08 01:26:37;;;;;;;1.13;1.13;;;;;;;6.29;81.41;95502.69;5132314;27;20442;-56
2023/04/08 01:29:07;;;;;;;0.40;0.30;;;;;;;6.61;78.22;95516.09;5132594;27;20433;-56
2023/04/08 01:31:37;;;;;;;0.40;0.30;;;;;;;6.96;75.95;95515.81;5117430;27;20441;-56
2023/04/08 01:34:06;;;;;;;3.43;0.80;;;;;;;6.30;77.58;95488.47;5131992;27;20507;-55
2023/04/08 01:36:37;;;;;;;0.30;0.30;;;;;;;6.60;77.54;95524.25;5132116;27;20840;-56
2023/04/08 01:39:06;;;;;;;0.40;0.30;;;;;;;6.75;77.17;95524.47;5131560;27;20450;-55
2023/04/08 01:41:37;;;;;;;0.40;0.30;;;;;;;6.83;75.39;95516.97;5131695;27;20532;-56
2023/04/08 01:44:06;;;;;;;0.40;0.30;;;;;;;6.99;75.08;95521.44;5131267;27;21198;-55
2023/04/08 01:46:36;;;;;;;0.83;0.40;;;;;;;6.87;74.89;95496.22;5131888;27;20452;-56
2023/04/08 01:49:06;;;;;;;0.40;0.30;;;;;;;6.45;76.81;95516.09;5131525;28;20517;-56
2023/04/08 01:51:36;;;;;;;0.60;0.50;;;;;;;6.73;76.72;95519.44;5131583;28;21028;-56
2023/04/08 01:54:06;;;;;;;0.30;0.20;;;;;;;6.54;74.74;95519.91;5131107;28;20510;-56
2023/04/08 01:56:41;;;;;;;0.30;0.30;;;;;;;6.27;75.57;95470.50;5132463;28;20432;-56
2023/04/08 01:59:14;;;;;;;0.70;0.70;;;;;;;6.61;76.66;95531.88;5131888;28;20916;-56
2023/04/08 02:01:45;;;;;;;0.30;0.30;;;;;;;6.77;75.75;95527.66;5132188;27;20857;-56
2023/04/08 02:04:13;;;;;;;0.40;0.30;;;;;;;6.85;75.38;95520.19;5132219;28;20438;-56
2023/04/08 02:06:42;;;;;;;0.40;0.40;;;;;;;6.92;75.45;95538.44;5131800;28;20522;-56
2023/04/08 02:09:11;;;;;;;0.30;0.30;;;;;;;7.19;73.84;95538.56;5131982;28;20473;-56
2023/04/08 02:11:40;;;;;;;0.50;0.50;;;;;;;7.07;73.93;95533.41;5132249;27;20440;-56
2023/04/08 02:14:09;;;;;;;0.30;0.20;;;;;;;7.18;74.43;95531.72;5132196;28;20478;-57
2023/04/08 02:16:42;;;;;;;0.50;0.30;;;;;;;6.90;74.18;95493.09;5132077;27;20449;-56
2023/04/08 02:19:15;;;;;;;0.40;0.30;;;;;;;7.24;73.71;95528.88;5132617;28;20436;-56
2023/04/08 02:21:49;;;;;;;0.50;0.50;;;;;;;7.23;73.14;95529.94;5131845;28;20457;-57
2023/04/08 02:24:18;;;;;;;1.80;1.80;;;;;;;7.40;72.26;95522.78;5131795;28;21027;-56
2023/04/08 02:26:50;;;;;;;0.50;0.50;;;;;;;7.31;72.22;95521.59;5132346;27;20889;-56
2023/04/08 02:29:19;;;;;;;0.60;0.60;;;;;;;7.46;71.76;95521.03;5132286;28;20440;-56
2023/04/08 02:31:50;;;;;;;0.40;0.27;;;;;;;7.49;72.00;95523.94;5131996;28;21209;-56
2023/04/08 02:34:21;;;;;;;0.70;0.60;;;;;;;7.47;72.69;95522.59;5131537;28;20465;-56
2023/04/08 02:36:50;;;;;;;13.07;0.70;;;;;;;7.63;71.32;95513.84;5132078;28;21026;-56
2023/04/08 02:39:18;;;;;;;0.30;0.20;;;;;;;7.65;71.08;95517.84;5132150;27;20449;-56
2023/04/08 02:41:48;;;;;;;0.50;0.50;;;;;;;7.29;71.29;95515.78;5132823;27;20437;-56
2023/04/08 02:44:16;;;;;;;0.80;0.80;;;;;;;7.40;71.19;95525.44;5135925;27;20813;-56
2023/04/08 02:46:45;;;;;;;0.80;0.80;;;;;;;7.41;70.99;95526.22;5135627;27;20442;-56
2023/04/08 02:49:13;;;;;;;0.40;0.40;;;;;;;7.61;70.83;95532.53;5135069;27;20430;-56
2023/04/08 02:51:41;;;;;;;0.50;0.47;;;;;;;7.34;71.74;95531.66;5135221;27;20486;-56
2023/04/08 02:54:09;;;;;;;0.80;0.80;;;;;;;7.59;71.25;95529.34;5135065;27;21023;-56
2023/04/08 02:56:38;;;;;;;0.53;0.50;;;;;;;7.65;70.49;95533.66;5135643;27;20451;-56
2023/04/08 02:59:08;;;;;;;0.40;0.30;;;;;;;7.63;69.91;95535.75;5135025;27;20523;-57
2023/04/08 03:01:36;;;;;;;0.30;0.30;;;;;;;7.29;71.91;95536.06;5135530;27;20436;-57
2023/04/08 03:04:05;;;;;;;0.73;0.73;;;;;;;6.85;74.91;95532.53;5135225;27;20432;-57
2023/04/08 03:06:33;;;;;;;0.50;0.37;;;;;;;6.69;75.11;95493.81;5135290;27;20477;-57
2023/04/08 03:09:02;;;;;;;0.80;0.40;;;;;;;7.14;73.39;95520.03;5135531;27;20437;-56
2023/04/08 03:11:30;;;;;;;0.40;0.30;;;;;;;7.26;72.82;95529.44;5135315;27;20495;-57
2023/04/08 03:13:58;;;;;;;0.37;0.33;;;;;;;7.30;73.18;95535.03;5135427;27;20553;-55
2023/04/08 03:16:28;;;;;;;1.77;0.70;;;;;;;7.34;73.06;95538.78;5133838;27;20445;-56
2023/04/08 03:18:56;;;;;;;0.50;0.40;;;;;;;6.92;72.94;95473.38;5123242;27;21131;-56
2023/04/08 03:21:25;;;;;;;0.50;0.50;;;;;;;7.19;73.81;95535.91;5135143;27;20522;-56
2023/04/08 03:23:54;;;;;;;0.63;0.63;;;;;;;7.15;73.77;95532.19;5134759;27;20481;-57
2023/04/08 03:26:22;;;;;;;0.40;0.30;;;;;;;7.30;73.48;95535.84;5134383;27;20447;-56
2023/04/08 03:28:52;;;;;;;0.40;0.40;;;;;;;7.41;73.08;95524.38;5135441;27;20449;-56
2023/04/08 03:31:21;;;;;;;1.20;1.10;;;;;;;7.56;72.86;95529.84;5134421;27;20510;-56
2023/04/08 03:33:50;;;;;;;0.30;0.30;;;;;;;7.48;74.26;95530.28;5134515;27;20433;-56
2023/04/08 03:36:20;;;;;;;0.40;0.40;;;;;;;7.57;73.64;95531.44;5134667;27;20436;-55
2023/04/08 03:38:49;;;;;;;0.43;0.40;;;;;;;7.68;72.62;95527.91;5134773;27;20999;-56
2023/04/08 03:41:17;;;;;;;1.70;0.50;;;;;;;7.53;74.96;95525.06;5134566;27;20434;-56
2023/04/08 03:43:46;;;;;;;0.30;0.20;;;;;;;7.53;75.33;95535.63;5134582;27;20468;-56
2023/04/08 03:46:14;;;;;;;0.40;0.33;;;;;;;7.77;74.01;95536.16;5134223;27;20521;-56
2023/04/08 03:48:42;;;;;;;0.67;0.67;;;;;;;7.58;74.48;95533.06;5134403;27;20441;-56
2023/04/08 03:51:12;;;;;;;1.03;0.83;;;;;;;7.64;74.31;95518.88;5134219;27;20490;-56
2023/04/08 03:53:40;;;;;;;0.63;0.63;;;;;;;7.43;75.23;95540.78;5133494;27;20925;-56
2023/04/08 03:56:09;;;;;;;0.60;0.60;;;;;;;6.61;77.31;95481.06;5134574;27;20448;-56
2023/04/08 03:58:37;;;;;;;0.80;0.80;;;;;;;6.62;77.76;95462.41;5134315;27;20442;-56
2023/04/08 04:01:05;;;;;;;0.40;0.30;;;;;;;7.42;76.60;95536.53;5134168;27;21037;-56
2023/04/08 04:03:34;;;;;;;0.40;0.30;;;;;;;7.27;76.62;95530.25;5134172;27;20469;-56
2023/04/08 04:06:03;;;;;;;0.40;0.30;;;;;;;7.44;75.88;95534.44;5134411;27;20435;-56
2023/04/08 04:08:32;;;;;;;0.83;0.30;;;;;;;7.82;74.03;95535.44;5133981;27;20448;-56
2023/04/08 04:11:01;;;;;;;0.60;0.30;;;;;;;8.15;72.24;95530.00;5124667;27;20531;-56
2023/04/08 04:13:29;;;;;;;0.93;0.73;;;;;;;8.11;72.42;95534.97;5130128;27;20550;-56
2023/04/08 04:15:57;;;;;;;0.53;0.53;;;;;;;8.03;72.23;95529.34;5133968;27;20475;-55
2023/04/08 04:18:26;;;;;;;1.13;0.80;;;;;;;7.89;73.06;95539.50;5133695;27;20436;-55
2023/04/08 04:20:54;;;;;;;0.40;0.40;;;;;;;7.98;72.54;95532.72;5133623;27;20495;-56
2023/04/08 04:23:24;;;;;;;0.40;0.40;;;;;;;7.75;73.70;95532.19;5133188;27;20438;-56
2023/04/08 04:25:54;;;;;;;1.00;0.60;;;;;;;7.73;73.31;95519.25;5133323;27;20494;-56
2023/04/08 04:28:22;;;;;;;0.50;0.50;;;;;;;7.83;73.62;95539.66;5133204;27;20449;-56
2023/04/08 04:30:50;;;;;;;0.53;0.47;;;;;;;7.48;74.00;95488.09;5133032;27;20977;-56
2023/04/08 04:33:21;;;;;;;1.33;1.27;;;;;;;7.63;74.11;95533.13;5132917;27;20448;-56
2023/04/08 04:35:49;;;;;;;0.30;0.30;;;;;;;7.53;75.68;95533.00;5133276;27;20478;-56
2023/04/08 04:38:17;;;;;;;0.40;0.40;;;;;;;7.76;74.17;95531.16;5133528;27;20503;-56
2023/04/08 04:40:46;;;;;;;0.40;0.30;;;;;;;7.98;73.42;95531.91;5133221;27;20468;-56
2023/04/08 04:43:15;;;;;;;0.90;0.90;;;;;;;7.80;73.70;95534.88;5123639;27;20433;-55
2023/04/08 04:45:44;;;;;;;1.33;0.60;;;;;;;7.78;74.34;95534.31;5133104;27;20524;-56
2023/04/08 04:48:12;;;;;;;0.40;0.30;;;;;;;8.00;72.87;95535.09;5132956;27;20477;-55
2023/04/08 04:50:40;;;;;;;0.57;0.57;;;;;;;7.98;72.87;95534.56;5133016;27;20440;-55
2023/04/08 04:53:09;;;;;;;3.77;0.90;;;;;;;7.27;73.67;95459.88;5133140;27;20493;-56
2023/04/08 04:55:37;;;;;;;1.50;0.80;;;;;;;6.37;74.73;95360.13;5132579;27;20562;-56
2023/04/08 04:58:06;;;;;;;1.40;1.40;;;;;;;7.57;75.03;95522.72;5133058;27;20526;-56
2023/04/08 05:00:36;;;;;;;0.50;0.47;;;;;;;7.76;74.25;95539.06;5132619;27;20548;-55
2023/04/08 05:03:04;;;;;;;0.40;0.40;;;;;;;7.84;73.42;95536.78;5133365;27;20438;-55
2023/04/08 05:05:33;;;;;;;0.53;0.53;;;;;;;7.79;73.91;95535.94;5130801;27;20956;-55
2023/04/08 05:08:01;;;;;;;0.90;0.90;;;;;;;7.98;73.54;95542.47;5132580;27;20442;-55
2023/04/08 05:10:30;;;;;;;0.50;0.37;;;;;;;8.01;73.35;95547.28;5132508;27;20515;-55
2023/04/08 05:12:58;;;;;;;5.70;1.27;;;;;;;7.90;73.30;95537.63;5132927;27;20815;-56
2023/04/08 05:15:26;;;;;;;1.90;1.90;;;;;;;7.74;73.26;95539.31;5132868;27;20506;-55
2023/04/08 05:17:56;;;;;;;0.63;0.50;;;;;;;7.91;73.85;95542.69;5132563;27;20533;-55
2023/04/08 05:20:24;;;;;;;0.90;0.90;;;;;;;8.18;73.09;95546.13;5131267;27;20486;-55
2023/04/08 05:22:53;;;;;;;0.60;0.60;;;;;;;7.87;75.54;95536.28;5133002;27;20845;-55
2023/04/08 05:25:21;;;;;;;1.07;1.07;;;;;;;7.35;77.29;95543.00;5132375;27;20900;-55
2023/04/08 05:27:50;;;;;;;3.80;2.60;;;;;;;6.70;81.97;95524.41;5132421;27;20445;-56
2023/04/08 05:30:18;;;;;;;6.17;2.10;;;;;;;6.74;87.02;95542.13;5132561;27;20439;-55
2023/04/08 05:32:47;;;;;;;1.83;0.80;;;;;;;7.18;85.63;95545.69;5131908;27;20442;-55
2023/04/08 05:35:16;;;;;;;1.00;1.00;;;;;;;7.02;82.69;95477.97;5131899;27;20472;-56
2023/04/08 05:37:45;;;;;;;1.33;1.27;;;;;;;7.02;83.08;95518.31;5132157;27;20480;-56
2023/04/08 05:40:13;;;;;;;1.40;1.30;;;;;;;7.29;82.70;95549.25;5132556;27;20489;-56
2023/04/08 05:42:42;;;;;;;0.80;0.70;;;;;;;7.41;83.76;95553.38;5131764;28;20526;-56
2023/04/08 05:45:11;;;;;;;1.27;0.83;;;;;;;6.92;85.03;95543.72;5131979;27;20454;-56
2023/04/08 05:47:39;;;;;;;2.53;0.50;;;;;;;7.13;84.86;95553.53;5131486;27;20437;-55
2023/04/08 05:50:11;;;;;;;0.50;0.33;;;;;;;7.17;83.85;95551.19;5132427;27;21008;-56
2023/04/08 05:52:44;;;;;;;0.70;0.70;;;;;;;7.34;82.26;95563.31;5132503;27;20436;-56
2023/04/08 05:55:14;;;;;;;0.83;0.80;;;;;;;7.09;81.66;95555.03;5132074;28;20554;-56
2023/04/08 05:57:42;;;;;;;4.40;2.00;;;;;;;6.82;84.70;95562.00;5131615;28;20446;-56
2023/04/08 06:00:11;;;;;;;3.70;3.37;;;;;;;6.88;83.39;95511.00;5131717;28;20438;-56
2023/04/08 06:02:39;;;;;;;0.77;0.77;;;;;;;7.52;80.30;95555.13;5131512;28;20438;-56
2023/04/08 06:05:09;;;;;;;1.30;1.20;;;;;;;7.38;79.46;95553.88;5132211;28;20530;-56
2023/04/08 06:07:37;;;;;;;0.80;0.80;;;;;;;7.78;77.70;95547.53;5105966;28;20486;-56
2023/04/08 06:10:08;;;;;;;1.27;1.23;;;;;;;8.04;75.82;95554.69;5131851;28;21091;-56
2023/04/08 06:12:38;;;;;;;1.73;1.00;;;;;;;7.82;73.55;95514.34;5131144;28;20499;-55
2023/04/08 06:15:08;;;;;;;0.93;0.53;;;;;;;7.99;72.64;95486.81;5131241;28;20499;-55
2023/04/08 06:17:37;;;;;;;1.43;1.20;;;;;;;9.02;69.78;95484.78;5124502;27;20438;-55
2023/04/08 06:20:08;;;;;;;0.60;0.60;;;;;;;9.35;68.41;95537.34;5131957;27;20434;-55
2023/04/08 06:22:36;;;;;;;0.53;0.53;;;;;;;10.22;66.60;95537.47;5135199;27;20437;-55
2023/04/08 06:25:05;;;;;;;2.87;1.67;;;;;;;10.42;64.20;95520.84;5134236;27;20537;-55
2023/04/08 06:27:35;;;;;;;2.30;0.90;;;;;;;10.26;63.99;95525.31;5135246;27;20522;-55
2023/04/08 06:30:06;;;;;;;1.83;1.13;;;;;;;11.04;62.07;95532.00;5134852;27;21049;-55
2023/04/08 06:32:34;;;;;;;6.43;1.67;;;;;;;10.88;61.45;95530.41;5136003;27;20442;-55
2023/04/08 06:35:02;;;;;;;0.53;0.40;;;;;;;11.44;61.26;95526.63;5135862;27;20439;-55
2023/04/08 06:37:33;;;;;;;1.57;1.47;;;;;;;12.15;60.14;95507.81;5135852;27;20886;-56
2023/04/08 06:40:01;;;;;;;4.07;1.20;;;;;;;11.83;58.56;95510.91;5135706;27;21018;-55
2023/04/08 06:42:30;;;;;;;1.27;1.27;;;;;;;11.71;58.79;95528.22;5135104;27;20477;-56
2023/04/08 06:45:00;;;;;;;4.63;0.67;;;;;;;12.10;57.29;95521.13;5136077;27;20818;-57
2023/04/08 06:47:28;;;;;;;5.60;2.50;;;;;;;11.99;57.05;95519.59;5135363;27;20488;-55
2023/04/08 06:49:57;;;;;;;0.70;0.57;;;;;;;12.29;56.57;95445.03;5135517;27;20500;-55
2023/04/08 06:52:25;;;;;;;0.67;0.60;;;;;;;13.15;55.75;95503.69;5135682;27;20503;-55
2023/04/08 06:54:53;;;;;;;3.23;2.93;;;;;;;13.01;55.67;95513.34;5135287;27;20435;-55
2023/04/08 06:57:21;;;;;;;2.80;0.70;;;;;;;12.68;54.60;95469.72;5135402;27;20476;-56
2023/04/08 06:59:50;;;;;;;2.13;1.87;;;;;;;12.57;54.71;95516.06;5135614;27;20534;-56
2023/04/08 07:02:21;;;;;;;0.77;0.77;;;;;;;11.53;55.00;95367.63;5134251;27;20977;-55
2023/04/08 07:04:50;;;;;;;0.40;0.40;;;;;;;12.49;54.90;95508.69;5135354;27;20452;-55
2023/04/08 07:07:18;;;;;;;1.17;0.77;;;;;;;13.36;53.27;95504.25;5134850;27;20430;-55
2023/04/08 07:09:46;;;;;;;0.40;0.40;;;;;;;13.70;52.79;95510.28;5135181;27;20439;-55
2023/04/08 07:12:14;;;;;;;0.60;0.60;;;;;;;14.28;51.97;95513.56;5134780;27;20776;-55
2023/04/08 07:14:43;;;;;;;0.70;0.60;;;;;;;14.21;50.99;95493.69;5135341;27;20533;-55
2023/04/08 07:17:11;;;;;;;2.10;0.93;;;;;;;13.60;51.28;95496.28;5134567;27;20998;-56
2023/04/08 07:19:42;;;;;;;2.97;0.70;;;;;;;14.02;51.46;95507.78;5135042;27;20431;-57
2023/04/08 07:22:11;;;;;;;0.50;0.40;;;;;;;14.75;49.42;95509.97;5134619;27;20435;-55
2023/04/08 07:24:41;;;;;;;0.80;0.80;;;;;;;14.44;48.75;95515.00;5134086;27;20474;-56
2023/04/08 07:27:10;;;;;;;0.50;0.43;;;;;;;15.23;48.00;95487.28;5135101;27;20869;-56
2023/04/08 07:29:38;;;;;;;1.60;1.60;;;;;;;14.40;48.21;95511.28;5133502;27;20525;-57
2023/04/08 07:32:07;;;;;;;1.03;1.03;;;;;;;14.23;50.25;95515.50;5134916;27;20439;-58
2023/04/08 07:34:35;;;;;;;0.80;0.80;;;;;;;14.49;48.93;95504.25;5134311;27;20447;-57
2023/04/08 07:37:05;;;;;;;0.30;0.20;;;;;;;14.76;47.64;95510.78;5134541;27;20467;-55
2023/04/08 07:39:33;;;;;;;0.70;0.70;;;;;;;15.08;47.20;95468.06;5134322;27;20473;-56
2023/04/08 07:42:02;;;;;;;1.00;0.60;;;;;;;14.42;48.03;95508.38;5134902;27;20842;-57
2023/04/08 07:44:30;;;;;;;0.57;0.50;;;;;;;15.41;48.48;95515.03;5134096;27;20952;-55
2023/04/08 07:46:58;;;;;;;1.10;1.10;;;;;;;15.75;46.64;95496.00;5134829;27;20958;-55
2023/04/08 07:49:27;;;;;;;1.37;1.27;;;;;;;14.14;47.98;95507.34;5133962;27;20596;-56
2023/04/08 07:51:56;;;;;;;2.50;1.03;;;;;;;14.77;47.63;95504.38;5134394;27;20934;-55
2023/04/08 07:54:29;;;;;;;0.70;0.70;;;;;;;15.18;46.74;95494.59;5133965;27;20439;-56
2023/04/08 07:57:01;;;;;;;0.50;0.50;;;;;;;17.14;45.71;95493.19;5133730;27;20907;-57
2023/04/08 07:59:30;;;;;;;1.33;0.70;;;;;;;17.58;42.93;95496.94;5134149;27;20914;-59
2023/04/08 08:01:58;;;;;;;2.40;2.30;;;;;;;16.85;43.32;95494.75;5134188;27;20443;-59
2023/04/08 08:04:26;;;;;;;1.27;0.73;;;;;;;16.61;45.41;95499.56;5133796;27;20438;-59
2023/04/08 08:06:55;;;;;;;1.40;0.67;;;;;;;16.68;44.77;95499.94;5133675;27;20834;-59
2023/04/08 08:09:24;;;;;;;0.70;0.50;;;;;;;16.73;45.79;95497.94;5134141;27;20463;-59
2023/04/08 08:11:53;;;;;;;0.87;0.80;;;;;;;16.09;43.01;95508.97;5133753;27;20514;-59
2023/04/08 08:14:22;;;;;;;0.50;0.40;;;;;;;15.63;44.16;95503.72;5123699;27;20522;-59
2023/04/08 08:16:51;;;;;;;0.60;0.60;;;;;;;14.72;46.68;95513.25;5130659;27;20474;-61
2023/04/08 08:19:38;;;;;;;2.77;0.50;;;;;;;15.77;46.38;95507.97;5133735;27;20438;-58
2023/04/08 08:22:06;;;;;;;0.80;0.30;;;;;;;14.70;45.83;95510.06;5107342;27;20438;-60
2023/04/08 08:24:34;;;;;;;1.27;1.17;;;;;;;15.04;45.80;95507.13;5133334;27;20853;-58
2023/04/08 08:27:05;;;;;;;0.77;0.60;;;;;;;15.06;45.31;95456.91;5133392;27;20482;-58
2023/04/08 08:29:33;;;;;;;0.50;0.40;;;;;;;15.41;45.78;95498.19;5133381;27;20438;-58
2023/04/08 08:32:02;;;;;;;0.40;0.40;;;;;;;15.38;46.19;95504.16;5133938;27;20520;-57
2023/04/08 08:34:31;;;;;;;1.53;1.37;;;;;;;15.79;44.59;95475.59;5133478;27;20447;-58
2023/04/08 08:36:59;;;;;;;0.40;0.40;;;;;;;15.27;45.02;95498.19;5132630;27;20471;-57
2023/04/08 08:39:27;;;;;;;0.43;0.40;;;;;;;15.43;45.19;95506.75;5133234;27;20873;-58
2023/04/08 08:41:56;;;;;;;0.80;0.73;;;;;;;15.42;44.68;95494.47;5133748;27;20452;-58
2023/04/08 08:44:25;;;;;;;0.43;0.40;;;;;;;15.17;44.85;95509.06;5133230;27;20525;-58
2023/04/08 08:46:54;;;;;;;0.40;0.40;;;;;;;15.53;45.60;95498.56;5133345;27;20473;-58
2023/04/08 08:49:22;;;;;;;0.93;0.80;;;;;;;15.40;44.81;95499.31;5133234;27;20485;-58
2023/04/08 08:51:54;;;;;;;0.87;0.87;;;;;;;15.50;44.73;95496.47;5133301;27;20528;-58
2023/04/08 08:54:23;;;;;;;0.73;0.40;;;;;;;16.29;42.99;95489.81;5133072;27;20435;-58
2023/04/08 08:56:51;;;;;;;2.10;1.90;;;;;;;15.19;45.79;95497.00;5133421;27;20562;-58
2023/04/08 08:59:20;;;;;;;0.80;0.80;;;;;;;14.74;46.39;95468.38;5132983;27;20457;-59
2023/04/08 09:01:50;;;;;;;0.50;0.40;;;;;;;15.13;46.96;95498.16;5132950;27;20441;-59
2023/04/08 09:04:21;;;;;;;0.40;0.30;;;;;;;15.53;45.80;95491.34;5133103;27;20471;-58
2023/04/08 09:06:51;;;;;;;0.40;0.40;;;;;;;15.89;45.83;95494.09;5132600;27;20434;-58
2023/04/08 09:09:20;;;;;;;0.70;0.70;;;;;;;15.82;45.33;95477.69;5132699;27;20901;-58
2023/04/08 09:11:48;;;;;;;0.77;0.77;;;;;;;15.71;45.05;95497.69;5132660;27;20959;-58
2023/04/08 09:14:21;;;;;;;1.30;1.07;;;;;;;15.76;44.44;95492.25;5132790;27;20435;-58
2023/04/08 09:16:51;;;;;;;2.73;1.23;;;;;;;15.77;44.75;95491.94;5132496;27;20466;-58
2023/04/08 09:19:20;;;;;;;0.47;0.43;;;;;;;15.64;44.63;95489.25;5132328;27;20482;-58
2023/04/08 09:22:05;;;;;;;0.73;0.73;;;;;;;16.38;42.60;95437.97;5132515;27;20522;-58
2023/04/08 09:24:34;;;;;;;0.50;0.33;;;;;;;17.61;43.03;95478.34;5132572;27;20470;-58
2023/04/08 09:27:03;;;;;;;2.20;1.00;;;;;;;18.20;41.49;95470.78;5132753;27;20468;-57
2023/04/08 09:29:32;;;;;;;0.40;0.40;;;;;;;19.03;38.68;95464.19;5132300;27;20453;-60
2023/04/08 09:32:05;;;;;;;0.50;0.40;;;;;;;18.79;38.54;95364.56;5132704;27;20462;-59
2023/04/08 09:34:34;;;;;;;1.30;1.20;;;;;;;20.39;40.09;95456.72;5131678;27;20434;-61
2023/04/08 09:37:02;;;;;;;0.93;0.50;;;;;;;20.66;38.47;95469.69;5132304;27;20488;-63
2023/04/08 09:39:31;;;;;;;0.57;0.40;;;;;;;21.27;35.70;95438.41;5132569;27;20465;-64
2023/04/08 09:42:02;;;;;;;0.77;0.77;;;;;;;22.26;35.14;95452.41;5132722;27;20450;-64
2023/04/08 09:44:33;;;;;;;0.60;0.60;;;;;;;21.16;37.28;95456.09;5132094;27;21013;-63
2023/04/08 09:47:09;;;;;;;0.40;0.30;;;;;;;20.70;37.11;95459.00;5132052;27;20435;-63
2023/04/08 09:49:42;;;;;;;2.40;0.50;;;;;;;20.09;37.86;95463.19;5132062;27;20525;-63
2023/04/08 09:52:14;;;;;;;0.47;0.40;;;;;;;18.81;39.76;95459.81;5131495;27;20442;-62
2023/04/08 09:54:53;;;;;;;0.63;0.63;;;;;;;18.19;39.28;95459.25;5132771;28;20520;-60
2023/04/08 09:57:27;;;;;;;1.90;1.80;;;;;;;17.30;40.54;95464.16;5131342;28;20462;-60
2023/04/08 10:00:00;;;;;;;0.40;0.30;;;;;;;16.70;41.41;95386.13;5132276;28;20434;-61
2023/04/08 10:02:41;;;;;;;0.53;0.40;;;;;;;17.21;40.98;95412.41;5132195;28;20427;-63
2023/04/08 10:05:13;;;;;;;0.70;0.70;;;;;;;17.79;40.65;95447.03;5131517;27;20495;-63
2023/04/08 10:07:42;;;;;;;0.40;0.30;;;;;;;17.65;40.85;95462.44;5132484;28;20492;-62
2023/04/08 10:10:11;;;;;;;0.60;0.50;;;;;;;17.40;41.18;95457.72;5132145;28;20518;-61
2023/04/08 10:12:40;;;;;;;0.70;0.67;;;;;;;16.67;41.71;95453.63;5132274;28;20515;-59
2023/04/08 10:15:26;;;;;;;0.70;0.47;;;;;;;16.95;41.89;95462.38;5132198;28;20445;-59
2023/04/08 10:18:18;;;;;;;2.87;1.33;;;;;;;16.80;42.47;95449.34;5131687;27;20469;-60
2023/04/08 10:20:47;;;;;;;0.70;0.70;;;;;;;17.10;42.95;95462.00;5111390;28;20540;-60
2023/04/08 10:23:17;;;;;;;0.80;0.80;;;;;;;16.88;43.00;95465.44;5131109;28;20441;-60
2023/04/08 10:25:47;;;;;;;0.80;0.80;;;;;;;17.15;42.83;95459.19;5132201;28;20534;-59
2023/04/08 10:28:25;;;;;;;1.70;0.40;;;;;;;18.24;42.12;95447.59;5131637;27;20935;-60
2023/04/08 10:30:56;;;;;;;0.87;0.87;;;;;;;18.66;39.46;95446.06;5132021;28;20442;-60
2023/04/08 10:33:34;;;;;;;14.23;1.47;;;;;;;19.00;39.68;95441.44;5131645;27;20435;-59
2023/04/08 10:36:12;;;;;;;1.20;1.10;;;;;;;17.87;40.79;95453.50;5131893;27;20438;-61
2023/04/08 10:38:41;;;;;;;1.83;0.60;;;;;;;17.46;43.58;95392.97;5131154;28;20546;-61
2023/04/08 10:41:12;;;;;;;1.10;0.63;;;;;;;18.29;39.70;95436.72;5131968;27;20442;-61
2023/04/08 10:43:41;;;;;;;0.53;0.50;;;;;;;17.40;40.01;95434.41;5131679;27;20474;-61
2023/04/08 10:46:11;;;;;;;0.50;0.50;;;;;;;17.04;41.61;95437.22;5131443;28;20974;-62
2023/04/08 10:48:41;;;;;;;1.10;1.10;;;;;;;16.81;42.34;95435.66;5131254;28;20443;-61
2023/04/08 10:51:10;;;;;;;0.80;0.80;;;;;;;17.53;42.61;95435.44;5132178;28;20845;-61
2023/04/08 10:53:40;;;;;;;1.20;0.50;;;;;;;17.91;41.30;95428.44;5131916;27;20442;-60
2023/04/08 10:56:11;;;;;;;0.50;0.50;;;;;;;19.10;38.14;95428.78;5131903;28;20815;-60
2023/04/08 10:58:49;;;;;;;3.40;0.63;;;;;;;19.60;39.15;95432.44;5131377;28;20467;-62
2023/04/08 11:01:17;;;;;;;1.90;1.07;;;;;;;20.42;36.22;95423.75;5131604;28;20517;-63
2023/04/08 11:03:47;;;;;;;3.17;0.50;;;;;;;20.61;35.03;95413.31;5132207;27;20442;-61
2023/04/08 11:06:18;;;;;;;0.40;0.33;;;;;;;20.48;35.46;95411.69;5135037;27;20439;-60
2023/04/08 11:08:46;;;;;;;0.90;0.90;;;;;;;18.92;36.67;95415.38;5134682;27;20470;-61
2023/04/08 11:11:15;;;;;;;0.60;0.50;;;;;;;18.93;38.08;95416.97;5135316;27;20843;-60
2023/04/08 11:13:45;;;;;;;0.83;0.83;;;;;;;19.10;38.13;95410.00;5134950;27;21010;-61
2023/04/08 11:16:22;;;;;;;0.40;0.30;;;;;;;18.97;37.45;95366.09;5135294;27;20460;-60
2023/04/08 11:18:53;;;;;;;0.80;0.77;;;;;;;19.35;37.35;95401.84;5108031;27;20471;-58
2023/04/08 11:21:24;;;;;;;0.40;0.30;;;;;;;19.08;38.12;95404.13;5135407;27;20438;-58
2023/04/08 11:23:54;;;;;;;1.03;0.93;;;;;;;19.47;40.72;95398.50;5134921;27;20459;-60
2023/04/08 11:26:22;;;;;;;3.97;0.80;;;;;;;18.68;39.12;95390.94;5135422;27;20456;-60
2023/04/08 11:28:52;;;;;;;0.60;0.53;;;;;;;17.89;40.19;95390.41;5134891;27;20470;-60
2023/04/08 11:31:21;;;;;;;0.70;0.43;;;;;;;18.05;40.03;95371.97;5134735;27;20830;-60
2023/04/08 11:33:55;;;;;;;0.40;0.40;;;;;;;17.40;41.05;95372.78;5134273;27;20439;-60
2023/04/08 11:36:24;;;;;;;0.40;0.33;;;;;;;17.74;40.69;95386.28;5134315;27;20453;-62
2023/04/08 11:38:55;;;;;;;0.40;0.30;;;;;;;17.99;40.38;95389.31;5134458;27;21036;-61
2023/04/08 11:41:23;;;;;;;0.83;0.83;;;;;;;17.68;40.61;95341.19;5134637;27;20435;-61
2023/04/08 11:43:53;;;;;;;0.87;0.83;;;;;;;17.12;40.83;95305.25;5134495;27;20435;-61
2023/04/08 11:46:21;;;;;;;0.50;0.50;;;;;;;17.04;41.13;95386.34;5134661;27;20526;-60
2023/04/08 11:49:02;;;;;;;0.50;0.40;;;;;;;17.13;40.87;95378.31;5134375;27;20435;-61
2023/04/08 11:51:30;;;;;;;0.47;0.40;;;;;;;16.83;39.79;95326.38;5134599;27;20449;-62